sensor_id;sensor_type;location;lat;lon;timestamp;pressure;altitude;pressure_sealevel;temperature;humidity
75008;BME280;63554;48.940;12.050;2023-07-13T00:03:50;97213.22;;;18.09;100.00
75008;BME280;63554;48.940;12.050;2023-07-13T00:07:53;97217.88;;;18.03;100.00
75008;BME280;63554;48.940;12.050;2023-07-13T00:11:57;97228.28;;;18.01;100.00
75008;BME280;63554;48.940;12.050;2023-07-13T00:16:01;97241.41;;;17.99;100.00
75008;BME280;63554;48.940;12.050;2023-07-13T00:20:05;97232.66;;;17.97;100.00
75008;BME280;63554;48.940;12.050;2023-07-13T00:24:14;97235.13;;;17.98;100.00
75008;BME280;63554;48.940;12.050;2023-07-13T00:28:18;97227.72;;;17.99;100.00
75008;BME280;63554;48.940;12.050;2023-07-13T00:32:22;97223.88;;;17.95;100.00
75008;BME280;63554;48.940;12.050;2023-07-13T00:36:26;97229.63;;;17.93;100.00
75008;BME280;63554;48.940;12.050;2023-07-13T00:40:29;97216.50;;;17.90;99.52
75008;BME280;63554;48.940;12.050;2023-07-13T00:44:32;97214.28;;;17.87;100.00
75008;BME280;63554;48.940;12.050;2023-07-13T00:48:37;97222.47;;;17.82;100.00
75008;BME280;63554;48.940;12.050;2023-07-13T00:52:40;97232.88;;;17.80;100.00
75008;BME280;63554;48.940;12.050;2023-07-13T00:56:45;97246.22;;;17.71;100.00
75008;BME280;63554;48.940;12.050;2023-07-13T01:00:49;97236.91;;;17.67;100.00
75008;BME280;63554;48.940;12.050;2023-07-13T01:04:55;97228.44;;;17.69;100.00
75008;BME280;63554;48.940;12.050;2023-07-13T01:08:58;97234.19;;;17.67;100.00
75008;BME280;63554;48.940;12.050;2023-07-13T01:13:01;97234.19;;;17.62;100.00
75008;BME280;63554;48.940;12.050;2023-07-13T01:17:05;97225.69;;;17.58;100.00
75008;BME280;63554;48.940;12.050;2023-07-13T01:21:09;97227.84;;;17.62;100.00
75008;BME280;63554;48.940;12.050;2023-07-13T01:25:11;97228.72;;;17.62;100.00
75008;BME280;63554;48.940;12.050;2023-07-13T01:29:14;97225.38;;;17.60;100.00
75008;BME280;63554;48.940;12.050;2023-07-13T01:33:17;97223.75;;;17.59;100.00
75008;BME280;63554;48.940;12.050;2023-07-13T01:37:22;97218.03;;;17.61;100.00
75008;BME280;63554;48.940;12.050;2023-07-13T01:41:25;97211.69;;;17.60;100.00
75008;BME280;63554;48.940;12.050;2023-07-13T01:45:27;97202.16;;;17.63;100.00
75008;BME280;63554;48.940;12.050;2023-07-13T01:49:33;97198.03;;;17.60;100.00
75008;BME280;63554;48.940;12.050;2023-07-13T01:53:37;97201.31;;;17.57;100.00
75008;BME280;63554;48.940;12.050;2023-07-13T01:57:40;97211.41;;;17.51;100.00
75008;BME280;63554;48.940;12.050;2023-07-13T02:01:43;97205.38;;;17.49;100.00
75008;BME280;63554;48.940;12.050;2023-07-13T02:05:46;97210.03;;;17.49;100.00
75008;BME280;63554;48.940;12.050;2023-07-13T02:09:49;97208.94;;;17.50;100.00
75008;BME280;63554;48.940;12.050;2023-07-13T02:13:52;97197.44;;;17.48;100.00
75008;BME280;63554;48.940;12.050;2023-07-13T02:17:55;97194.97;;;17.46;100.00
75008;BME280;63554;48.940;12.050;2023-07-13T02:21:58;97192.78;;;17.43;100.00
75008;BME280;63554;48.940;12.050;2023-07-13T02:26:03;97195.47;;;17.38;100.00
75008;BME280;63554;48.940;12.050;2023-07-13T02:30:07;97208.88;;;17.34;100.00
75008;BME280;63554;48.940;12.050;2023-07-13T02:34:10;97211.34;;;17.31;100.00
75008;BME280;63554;48.940;12.050;2023-07-13T02:38:12;97211.84;;;17.28;100.00
75008;BME280;63554;48.940;12.050;2023-07-13T02:42:16;97218.13;;;17.23;100.00
75008;BME280;63554;48.940;12.050;2023-07-13T02:46:19;97223.88;;;17.22;100.00
75008;BME280;63554;48.940;12.050;2023-07-13T02:50:22;97215.38;;;17.18;100.00
75008;BME280;63554;48.940;12.050;2023-07-13T02:54:25;97219.72;;;17.14;100.00
75008;BME280;63554;48.940;12.050;2023-07-13T02:58:29;97218.91;;;17.13;100.00
75008;BME280;63554;48.940;12.050;2023-07-13T03:02:32;97227.63;;;17.10;100.00
75008;BME280;63554;48.940;12.050;2023-07-13T03:06:34;97240.75;;;17.08;100.00
75008;BME280;63554;48.940;12.050;2023-07-13T03:10:37;97241.25;;;17.05;100.00
75008;BME280;63554;48.940;12.050;2023-07-13T03:14:42;97247.00;;;17.04;100.00
75008;BME280;63554;48.940;12.050;2023-07-13T03:18:46;97249.44;;;17.00;100.00
75008;BME280;63554;48.940;12.050;2023-07-13T03:22:49;97258.41;;;16.95;100.00
75008;BME280;63554;48.940;12.050;2023-07-13T03:26:52;97280.28;;;16.95;100.00
75008;BME280;63554;48.940;12.050;2023-07-13T03:31:01;97264.19;;;16.94;100.00
75008;BME280;63554;48.940;12.050;2023-07-13T03:35:04;97276.50;;;16.96;100.00
75008;BME280;63554;48.940;12.050;2023-07-13T03:39:08;97285.84;;;17.06;100.00
75008;BME280;63554;48.940;12.050;2023-07-13T03:43:11;97288.84;;;17.04;100.00
75008;BME280;63554;48.940;12.050;2023-07-13T03:47:15;97284.19;;;16.99;100.00
75008;BME280;63554;48.940;12.050;2023-07-13T03:51:18;97290.97;;;16.97;100.00
75008;BME280;63554;48.940;12.050;2023-07-13T03:55:21;97300.78;;;16.93;100.00
75008;BME280;63554;48.940;12.050;2023-07-13T03:59:23;97302.69;;;16.92;100.00
75008;BME280;63554;48.940;12.050;2023-07-13T04:03:28;97303.78;;;16.91;100.00
75008;BME280;63554;48.940;12.050;2023-07-13T04:07:36;97294.88;;;17.06;100.00
75008;BME280;63554;48.940;12.050;2023-07-13T04:11:38;97295.53;;;17.29;100.00
75008;BME280;63554;48.940;12.050;2023-07-13T04:15:41;97295.53;;;17.24;100.00
75008;BME280;63554;48.940;12.050;2023-07-13T04:19:45;97299.59;;;17.16;100.00
75008;BME280;63554;48.940;12.050;2023-07-13T04:23:48;97294.94;;;17.16;100.00
75008;BME280;63554;48.940;12.050;2023-07-13T04:27:52;97286.44;;;17.13;100.00
75008;BME280;63554;48.940;12.050;2023-07-13T04:31:54;97288.59;;;17.11;100.00
75008;BME280;63554;48.940;12.050;2023-07-13T04:35:59;97289.44;;;17.11;100.00
75008;BME280;63554;48.940;12.050;2023-07-13T04:40:03;97288.88;;;17.09;100.00
75008;BME280;63554;48.940;12.050;2023-07-13T04:44:06;97296.25;;;17.09;100.00
75008;BME280;63554;48.940;12.050;2023-07-13T04:48:09;97306.41;;;17.13;100.00
75008;BME280;63554;48.940;12.050;2023-07-13T04:52:13;97301.75;;;17.14;100.00
75008;BME280;63554;48.940;12.050;2023-07-13T04:56:15;97313.81;;;17.18;100.00
75008;BME280;63554;48.940;12.050;2023-07-13T05:00:18;97320.38;;;17.17;100.00
75008;BME280;63554;48.940;12.050;2023-07-13T05:04:21;97316.81;;;17.16;100.00
75008;BME280;63554;48.940;12.050;2023-07-13T05:08:25;97324.25;;;17.21;100.00
75008;BME280;63554;48.940;12.050;2023-07-13T05:12:28;97327.53;;;17.23;100.00
75008;BME280;63554;48.940;12.050;2023-07-13T05:16:31;97336.25;;;17.20;100.00
75008;BME280;63554;48.940;12.050;2023-07-13T05:20:34;97342.59;;;17.26;100.00
75008;BME280;63554;48.940;12.050;2023-07-13T05:24:38;97356.59;;;17.34;99.59
75008;BME280;63554;48.940;12.050;2023-07-13T05:28:41;97348.72;;;17.43;99.81
75008;BME280;63554;48.940;12.050;2023-07-13T05:32:44;97353.75;;;17.56;99.30
75008;BME280;63554;48.940;12.050;2023-07-13T05:36:47;97355.94;;;17.59;96.34
75008;BME280;63554;48.940;12.050;2023-07-13T05:40:54;97361.66;;;17.53;87.80
75008;BME280;63554;48.940;12.050;2023-07-13T05:44:57;97366.06;;;17.59;87.57
75008;BME280;63554;48.940;12.050;2023-07-13T05:49:00;97351.81;;;17.57;81.94
75008;BME280;63554;48.940;12.050;2023-07-13T05:53:02;97354.91;;;17.71;84.93
75008;BME280;63554;48.940;12.050;2023-07-13T05:57:07;97357.66;;;17.71;84.03
75008;BME280;63554;48.940;12.050;2023-07-13T06:01:12;97359.88;;;17.74;84.04
75008;BME280;63554;48.940;12.050;2023-07-13T06:05:16;97359.56;;;17.75;83.25
75008;BME280;63554;48.940;12.050;2023-07-13T06:09:19;97368.34;;;17.72;81.60
75008;BME280;63554;48.940;12.050;2023-07-13T06:13:25;97364.78;;;17.77;81.56
75008;BME280;63554;48.940;12.050;2023-07-13T06:17:27;97368.44;;;17.88;80.99
75008;BME280;63554;48.940;12.050;2023-07-13T06:21:30;97371.75;;;17.90;80.40
75008;BME280;63554;48.940;12.050;2023-07-13T06:25:33;97368.72;;;17.86;79.24
75008;BME280;63554;48.940;12.050;2023-07-13T06:29:37;97376.38;;;17.89;79.34
75008;BME280;63554;48.940;12.050;2023-07-13T06:33:41;97382.94;;;17.88;78.60
75008;BME280;63554;48.940;12.050;2023-07-13T06:37:44;97382.94;;;17.88;79.23
75008;BME280;63554;48.940;12.050;2023-07-13T06:41:48;97380.00;;;18.00;77.74
75008;BME280;63554;48.940;12.050;2023-07-13T06:45:54;97375.44;;;18.26;76.04
75008;BME280;63554;48.940;12.050;2023-07-13T06:49:57;97387.53;;;18.35;72.92
75008;BME280;63554;48.940;12.050;2023-07-13T06:54:00;97383.44;;;18.48;73.27
75008;BME280;63554;48.940;12.050;2023-07-13T06:58:03;97389.50;;;18.66;71.86
75008;BME280;63554;48.940;12.050;2023-07-13T07:02:10;97384.38;;;18.85;70.30
75008;BME280;63554;48.940;12.050;2023-07-13T07:06:15;97395.38;;;19.10;70.64
75008;BME280;63554;48.940;12.050;2023-07-13T07:10:19;97400.03;;;19.30;69.81
75008;BME280;63554;48.940;12.050;2023-07-13T07:14:22;97394.81;;;19.34;67.99
75008;BME280;63554;48.940;12.050;2023-07-13T07:18:27;97404.16;;;19.33;67.26
75008;BME280;63554;48.940;12.050;2023-07-13T07:22:29;97407.16;;;19.36;67.68
75008;BME280;63554;48.940;12.050;2023-07-13T07:26:32;97408.53;;;19.70;67.96
75008;BME280;63554;48.940;12.050;2023-07-13T07:30:56;97407.44;;;19.76;65.66
75008;BME280;63554;48.940;12.050;2023-07-13T07:35:05;97429.09;;;19.88;64.50
75008;BME280;63554;48.940;12.050;2023-07-13T07:39:08;97426.56;;;20.12;64.95
75008;BME280;63554;48.940;12.050;2023-07-13T07:43:12;97419.47;;;19.95;63.56
75008;BME280;63554;48.940;12.050;2023-07-13T07:47:14;97420.56;;;19.89;64.84
75008;BME280;63554;48.940;12.050;2023-07-13T07:51:19;97433.75;;;19.87;63.44
75008;BME280;63554;48.940;12.050;2023-07-13T07:55:22;97432.41;;;19.80;64.26
75008;BME280;63554;48.940;12.050;2023-07-13T07:59:28;97440.84;;;20.19;62.13
75008;BME280;63554;48.940;12.050;2023-07-13T08:03:51;97431.25;;;20.11;62.30
75008;BME280;63554;48.940;12.050;2023-07-13T08:07:58;97422.31;;;20.45;62.46
75008;BME280;63554;48.940;12.050;2023-07-13T08:12:00;97444.41;;;20.14;62.40
75008;BME280;63554;48.940;12.050;2023-07-13T08:16:06;97440.03;;;20.13;61.38
75008;BME280;63554;48.940;12.050;2023-07-13T08:20:10;97440.69;;;20.50;58.90
75008;BME280;63554;48.940;12.050;2023-07-13T08:24:14;97444.75;;;20.68;57.35
75008;BME280;63554;48.940;12.050;2023-07-13T08:28:17;97448.72;;;21.01;55.22
75008;BME280;63554;48.940;12.050;2023-07-13T08:32:20;97465.47;;;21.05;52.62
75008;BME280;63554;48.940;12.050;2023-07-13T08:36:25;97455.22;;;21.16;52.00
75008;BME280;63554;48.940;12.050;2023-07-13T08:40:30;97463.16;;;21.22;53.10
75008;BME280;63554;48.940;12.050;2023-07-13T08:44:42;97455.94;;;21.31;50.55
75008;BME280;63554;48.940;12.050;2023-07-13T08:48:49;97467.66;;;21.08;50.88
75008;BME280;63554;48.940;12.050;2023-07-13T08:52:55;97474.47;;;21.60;50.43
75008;BME280;63554;48.940;12.050;2023-07-13T08:57:03;97478.56;;;21.63;50.64
75008;BME280;63554;48.940;12.050;2023-07-13T09:01:18;97483.66;;;21.80;50.64
75008;BME280;63554;48.940;12.050;2023-07-13T09:05:28;97472.88;;;21.83;49.78
75008;BME280;63554;48.940;12.050;2023-07-13T09:09:43;97475.19;;;22.00;50.60
75008;BME280;63554;48.940;12.050;2023-07-13T09:13:55;97482.81;;;21.79;49.74
75008;BME280;63554;48.940;12.050;2023-07-13T09:18:02;97473.25;;;22.30;48.57
75008;BME280;63554;48.940;12.050;2023-07-13T09:22:11;97471.47;;;22.15;46.51
75008;BME280;63554;48.940;12.050;2023-07-13T09:26:19;97478.03;;;22.48;46.41
75008;BME280;63554;48.940;12.050;2023-07-13T09:30:30;97480.97;;;22.33;45.28
75008;BME280;63554;48.940;12.050;2023-07-13T09:34:35;97474.63;;;22.33;45.42
75008;BME280;63554;48.940;12.050;2023-07-13T09:38:38;97455.31;;;22.76;44.79
75008;BME280;63554;48.940;12.050;2023-07-13T09:42:41;97476.56;;;22.75;45.84
75008;BME280;63554;48.940;12.050;2023-07-13T09:46:51;97476.81;;;22.79;46.89
75008;BME280;63554;48.940;12.050;2023-07-13T09:50:55;97473.66;;;23.09;45.63
75008;BME280;63554;48.940;12.050;2023-07-13T09:54:58;97469.94;;;22.95;43.41
75008;BME280;63554;48.940;12.050;2023-07-13T09:59:01;97486.88;;;22.88;42.09
75008;BME280;63554;48.940;12.050;2023-07-13T10:03:15;97478.31;;;22.90;43.44
75008;BME280;63554;48.940;12.050;2023-07-13T10:07:22;97469.81;;;22.86;41.64
75008;BME280;63554;48.940;12.050;2023-07-13T10:11:30;97476.94;;;22.68;40.73
75008;BME280;63554;48.940;12.050;2023-07-13T10:15:35;97480.94;;;23.00;39.13
75008;BME280;63554;48.940;12.050;2023-07-13T10:19:41;97474.41;;;23.15;39.51
75008;BME280;63554;48.940;12.050;2023-07-13T10:23:47;97469.25;;;23.46;39.21
75008;BME280;63554;48.940;12.050;2023-07-13T10:27:53;97481.50;;;23.73;40.05
75008;BME280;63554;48.940;12.050;2023-07-13T10:31:57;97477.91;;;23.92;39.70
75008;BME280;63554;48.940;12.050;2023-07-13T10:40:27;97477.53;;;23.08;41.06
75008;BME280;63554;48.940;12.050;2023-07-13T10:44:33;97476.59;;;22.94;40.72
75008;BME280;63554;48.940;12.050;2023-07-13T10:48:36;97466.94;;;23.16;40.64
75008;BME280;63554;48.940;12.050;2023-07-13T10:52:44;97482.88;;;23.00;39.94
75008;BME280;63554;48.940;12.050;2023-07-13T10:56:53;97472.72;;;22.95;40.05
75008;BME280;63554;48.940;12.050;2023-07-13T11:01:11;97476.03;;;23.35;39.28
75008;BME280;63554;48.940;12.050;2023-07-13T11:05:25;97481.63;;;23.30;38.27
75008;BME280;63554;48.940;12.050;2023-07-13T11:09:36;97480.06;;;23.43;36.84
75008;BME280;63554;48.940;12.050;2023-07-13T11:13:56;97480.28;;;23.46;37.36
75008;BME280;63554;48.940;12.050;2023-07-13T11:18:04;97478.41;;;23.61;37.07
75008;BME280;63554;48.940;12.050;2023-07-13T11:22:22;97487.63;;;23.37;37.20
75008;BME280;63554;48.940;12.050;2023-07-13T11:26:40;97486.69;;;23.80;36.36
75008;BME280;63554;48.940;12.050;2023-07-13T11:30:47;97482.88;;;24.22;37.08
75008;BME280;63554;48.940;12.050;2023-07-13T11:34:51;97472.53;;;24.83;37.51
75008;BME280;63554;48.940;12.050;2023-07-13T11:39:00;97463.06;;;25.49;33.96
75008;BME280;63554;48.940;12.050;2023-07-13T11:43:06;97454.66;;;25.40;35.98
75008;BME280;63554;48.940;12.050;2023-07-13T11:47:11;97461.72;;;25.10;33.80
75008;BME280;63554;48.940;12.050;2023-07-13T11:51:20;97457.34;;;24.95;33.54
75008;BME280;63554;48.940;12.050;2023-07-13T11:55:23;97460.91;;;25.09;34.22
75008;BME280;63554;48.940;12.050;2023-07-13T11:59:29;97455.44;;;25.18;34.56
75008;BME280;63554;48.940;12.050;2023-07-13T12:03:34;97453.78;;;25.17;34.29
75008;BME280;63554;48.940;12.050;2023-07-13T12:07:38;97469.97;;;25.37;32.93
75008;BME280;63554;48.940;12.050;2023-07-13T12:11:42;97462.84;;;25.09;34.37
75008;BME280;63554;48.940;12.050;2023-07-13T12:15:47;97465.13;;;23.77;36.43
75008;BME280;63554;48.940;12.050;2023-07-13T12:19:51;97459.22;;;24.44;34.18
75008;BME280;63554;48.940;12.050;2023-07-13T12:23:55;97445.78;;;25.52;32.81
75008;BME280;63554;48.940;12.050;2023-07-13T12:27:57;97432.56;;;25.94;31.61
75008;BME280;63554;48.940;12.050;2023-07-13T12:32:02;97437.66;;;26.00;32.03
75008;BME280;63554;48.940;12.050;2023-07-13T12:36:06;97439.94;;;25.76;32.07
75008;BME280;63554;48.940;12.050;2023-07-13T12:44:17;97431.16;;;26.05;30.32
75008;BME280;63554;48.940;12.050;2023-07-13T12:48:21;97421.50;;;26.42;31.19
75008;BME280;63554;48.940;12.050;2023-07-13T12:52:43;97415.09;;;26.82;30.08
75008;BME280;63554;48.940;12.050;2023-07-13T12:56:49;97419.50;;;26.34;30.68
75008;BME280;63554;48.940;12.050;2023-07-13T13:00:56;97417.50;;;25.63;31.33
75008;BME280;63554;48.940;12.050;2023-07-13T13:05:04;97408.78;;;25.79;31.87
75008;BME280;63554;48.940;12.050;2023-07-13T13:09:12;97403.38;;;25.96;30.22
75008;BME280;63554;48.940;12.050;2023-07-13T13:13:15;97401.38;;;26.28;29.99
75008;BME280;63554;48.940;12.050;2023-07-13T13:17:20;97405.06;;;26.55;29.10
75008;BME280;63554;48.940;12.050;2023-07-13T13:21:26;97390.25;;;26.77;29.70
75008;BME280;63554;48.940;12.050;2023-07-13T13:25:28;97396.81;;;27.25;28.11
75008;BME280;63554;48.940;12.050;2023-07-13T13:29:39;97396.03;;;26.40;29.67
75008;BME280;63554;48.940;12.050;2023-07-13T13:33:43;97387.16;;;26.78;29.44
75008;BME280;63554;48.940;12.050;2023-07-13T13:37:48;97388.00;;;27.40;27.02
75008;BME280;63554;48.940;12.050;2023-07-13T13:41:53;97383.09;;;27.19;27.87
75008;BME280;63554;48.940;12.050;2023-07-13T13:45:57;97391.19;;;26.63;27.97
75008;BME280;63554;48.940;12.050;2023-07-13T13:50:02;97392.34;;;25.82;29.10
75008;BME280;63554;48.940;12.050;2023-07-13T13:54:15;97397.41;;;25.58;29.64
75008;BME280;63554;48.940;12.050;2023-07-13T13:58:18;97401.38;;;25.65;29.23
75008;BME280;63554;48.940;12.050;2023-07-13T14:02:23;97393.63;;;25.76;30.18
75008;BME280;63554;48.940;12.050;2023-07-13T14:06:27;97394.47;;;25.54;29.29
75008;BME280;63554;48.940;12.050;2023-07-13T14:10:31;97404.22;;;25.52;29.42
75008;BME280;63554;48.940;12.050;2023-07-13T14:14:34;97407.94;;;25.47;28.63
75008;BME280;63554;48.940;12.050;2023-07-13T14:18:37;97402.59;;;25.51;29.14
75008;BME280;63554;48.940;12.050;2023-07-13T14:22:40;97405.75;;;25.35;27.64
75008;BME280;63554;48.940;12.050;2023-07-13T14:26:47;97409.09;;;25.23;28.21
75008;BME280;63554;48.940;12.050;2023-07-13T14:30:50;97404.22;;;25.52;28.70
75008;BME280;63554;48.940;12.050;2023-07-13T14:34:53;97397.25;;;25.54;29.10
75008;BME280;63554;48.940;12.050;2023-07-13T14:38:56;97403.63;;;25.86;28.45
75008;BME280;63554;48.940;12.050;2023-07-13T14:43:01;97406.22;;;25.60;28.48
75008;BME280;63554;48.940;12.050;2023-07-13T14:47:06;97397.56;;;25.84;27.96
75008;BME280;63554;48.940;12.050;2023-07-13T14:51:10;97388.84;;;26.48;28.39
75008;BME280;63554;48.940;12.050;2023-07-13T14:55:14;97399.31;;;26.51;27.20
75008;BME280;63554;48.940;12.050;2023-07-13T14:59:18;97393.94;;;25.75;27.37
75008;BME280;63554;48.940;12.050;2023-07-13T15:03:23;97380.94;;;26.24;27.89
75008;BME280;63554;48.940;12.050;2023-07-13T15:07:27;97396.34;;;26.39;26.93
75008;BME280;63554;48.940;12.050;2023-07-13T15:11:30;97378.59;;;26.57;26.66
75008;BME280;63554;48.940;12.050;2023-07-13T15:15:34;97392.72;;;26.21;27.03
75008;BME280;63554;48.940;12.050;2023-07-13T15:19:38;97402.81;;;25.18;27.96
75008;BME280;63554;48.940;12.050;2023-07-13T15:23:41;97392.34;;;24.92;27.83
75008;BME280;63554;48.940;12.050;2023-07-13T15:27:44;97388.22;;;25.03;28.69
75008;BME280;63554;48.940;12.050;2023-07-13T15:31:48;97388.25;;;24.90;28.97
75008;BME280;63554;48.940;12.050;2023-07-13T15:35:51;97396.47;;;25.62;27.25
75008;BME280;63554;48.940;12.050;2023-07-13T15:39:55;97395.75;;;25.12;28.33
75008;BME280;63554;48.940;12.050;2023-07-13T15:43:59;97389.69;;;24.87;29.10
75008;BME280;63554;48.940;12.050;2023-07-13T15:48:11;97397.06;;;25.14;28.67
75008;BME280;63554;48.940;12.050;2023-07-13T15:52:20;97398.63;;;25.06;29.09
75008;BME280;63554;48.940;12.050;2023-07-13T15:56:26;97402.97;;;25.35;29.12
75008;BME280;63554;48.940;12.050;2023-07-13T16:00:29;97405.16;;;25.24;29.27
75008;BME280;63554;48.940;12.050;2023-07-13T16:04:33;97405.44;;;25.00;29.26
75008;BME280;63554;48.940;12.050;2023-07-13T16:08:36;97397.81;;;24.70;29.88
75008;BME280;63554;48.940;12.050;2023-07-13T16:12:42;97402.75;;;24.45;29.28
75008;BME280;63554;48.940;12.050;2023-07-13T16:16:45;97400.72;;;24.64;28.32
75008;BME280;63554;48.940;12.050;2023-07-13T16:20:49;97400.81;;;25.32;28.58
75008;BME280;63554;48.940;12.050;2023-07-13T16:24:53;97401.41;;;25.06;29.16
75008;BME280;63554;48.940;12.050;2023-07-13T16:28:57;97406.91;;;25.65;27.91
75008;BME280;63554;48.940;12.050;2023-07-13T16:33:03;97397.00;;;25.73;27.74
75008;BME280;63554;48.940;12.050;2023-07-13T16:37:15;97413.91;;;25.85;27.43
75008;BME280;63554;48.940;12.050;2023-07-13T16:41:18;97415.38;;;25.38;28.07
75008;BME280;63554;48.940;12.050;2023-07-13T16:45:22;97417.81;;;24.66;28.92
75008;BME280;63554;48.940;12.050;2023-07-13T16:49:28;97428.69;;;24.49;29.84
75008;BME280;63554;48.940;12.050;2023-07-13T16:53:33;97425.75;;;25.32;28.77
75008;BME280;63554;48.940;12.050;2023-07-13T16:57:36;97424.44;;;25.75;27.50
75008;BME280;63554;48.940;12.050;2023-07-13T17:01:40;97433.44;;;25.58;28.84
75008;BME280;63554;48.940;12.050;2023-07-13T17:05:45;97430.13;;;25.47;27.77
75008;BME280;63554;48.940;12.050;2023-07-13T17:09:51;97426.09;;;25.17;28.53
75008;BME280;63554;48.940;12.050;2023-07-13T17:13:55;97435.16;;;25.45;28.22
75008;BME280;63554;48.940;12.050;2023-07-13T17:17:59;97430.31;;;25.51;28.48
75008;BME280;63554;48.940;12.050;2023-07-13T17:22:10;97433.94;;;25.60;27.82
75008;BME280;63554;48.940;12.050;2023-07-13T17:26:21;97435.78;;;25.42;27.93
75008;BME280;63554;48.940;12.050;2023-07-13T17:30:28;97443.09;;;25.38;28.13
75008;BME280;63554;48.940;12.050;2023-07-13T17:34:31;97443.34;;;25.14;29.01
75008;BME280;63554;48.940;12.050;2023-07-13T17:38:37;97443.59;;;25.03;29.12
75008;BME280;63554;48.940;12.050;2023-07-13T17:42:43;97449.00;;;25.09;29.14
75008;BME280;63554;48.940;12.050;2023-07-13T17:46:47;97446.41;;;24.90;29.11
75008;BME280;63554;48.940;12.050;2023-07-13T17:50:50;97437.38;;;24.84;29.67
75008;BME280;63554;48.940;12.050;2023-07-13T17:55:04;97445.06;;;24.87;28.96
75008;BME280;63554;48.940;12.050;2023-07-13T17:59:10;97449.06;;;24.81;29.25
75008;BME280;63554;48.940;12.050;2023-07-13T18:03:16;97453.16;;;24.70;29.64
75008;BME280;63554;48.940;12.050;2023-07-13T18:07:20;97447.53;;;24.47;30.35
75008;BME280;63554;48.940;12.050;2023-07-13T18:11:29;97456.56;;;24.25;30.44
75008;BME280;63554;48.940;12.050;2023-07-13T18:15:33;97461.13;;;24.02;30.66
75008;BME280;63554;48.940;12.050;2023-07-13T18:19:40;97465.94;;;23.96;31.39
75008;BME280;63554;48.940;12.050;2023-07-13T18:23:43;97461.28;;;23.78;31.53
75008;BME280;63554;48.940;12.050;2023-07-13T18:27:47;97461.22;;;23.64;32.72
75008;BME280;63554;48.940;12.050;2023-07-13T18:31:51;97457.97;;;23.43;32.73
75008;BME280;63554;48.940;12.050;2023-07-13T18:35:54;97470.59;;;23.30;33.54
75008;BME280;63554;48.940;12.050;2023-07-13T18:39:57;97467.47;;;23.18;34.48
75008;BME280;63554;48.940;12.050;2023-07-13T18:43:59;97472.81;;;23.09;36.71
75008;BME280;63554;48.940;12.050;2023-07-13T18:48:04;97472.19;;;22.93;36.19
75008;BME280;63554;48.940;12.050;2023-07-13T18:52:17;97482.31;;;22.79;37.79
75008;BME280;63554;48.940;12.050;2023-07-13T18:56:21;97478.13;;;22.62;38.18
75008;BME280;63554;48.940;12.050;2023-07-13T19:00:25;97486.34;;;22.43;39.40
75008;BME280;63554;48.940;12.050;2023-07-13T19:04:31;97486.00;;;22.26;40.03
75008;BME280;63554;48.940;12.050;2023-07-13T19:08:34;97487.25;;;22.09;40.62
75008;BME280;63554;48.940;12.050;2023-07-13T19:12:37;97496.53;;;21.89;40.66
75008;BME280;63554;48.940;12.050;2023-07-13T19:16:40;97500.81;;;21.71;41.27
75008;BME280;63554;48.940;12.050;2023-07-13T19:20:46;97503.41;;;21.58;42.36
75008;BME280;63554;48.940;12.050;2023-07-13T19:24:50;97508.16;;;21.42;42.77
75008;BME280;63554;48.940;12.050;2023-07-13T19:28:54;97515.38;;;21.32;42.60
75008;BME280;63554;48.940;12.050;2023-07-13T19:32:58;97519.03;;;21.23;43.20
75008;BME280;63554;48.940;12.050;2023-07-13T19:37:05;97527.94;;;21.09;43.60
75008;BME280;63554;48.940;12.050;2023-07-13T19:41:15;97533.50;;;20.94;45.03
75008;BME280;63554;48.940;12.050;2023-07-13T19:45:20;97553.09;;;20.82;44.74
75008;BME280;63554;48.940;12.050;2023-07-13T19:49:23;97549.84;;;20.65;45.36
75008;BME280;63554;48.940;12.050;2023-07-13T19:53:27;97551.75;;;20.54;45.77
75008;BME280;63554;48.940;12.050;2023-07-13T19:57:30;97551.28;;;20.31;45.50
75008;BME280;63554;48.940;12.050;2023-07-13T20:01:33;97565.63;;;19.98;46.97
75008;BME280;63554;48.940;12.050;2023-07-13T20:05:36;97564.78;;;19.77;47.58
75008;BME280;63554;48.940;12.050;2023-07-13T20:09:40;97578.19;;;19.58;48.21
75008;BME280;63554;48.940;12.050;2023-07-13T20:13:49;97580.09;;;19.47;47.92
75008;BME280;63554;48.940;12.050;2023-07-13T20:17:53;97593.56;;;19.48;48.52
75008;BME280;63554;48.940;12.050;2023-07-13T20:21:56;97593.28;;;19.55;49.50
75008;BME280;63554;48.940;12.050;2023-07-13T20:26:00;97597.66;;;19.56;49.31
75008;BME280;63554;48.940;12.050;2023-07-13T20:30:04;97596.84;;;19.55;49.28
75008;BME280;63554;48.940;12.050;2023-07-13T20:34:15;97605.91;;;19.56;50.92
75008;BME280;63554;48.940;12.050;2023-07-13T20:38:20;97611.69;;;19.54;51.37
75008;BME280;63554;48.940;12.050;2023-07-13T20:42:24;97610.31;;;19.47;49.95
75008;BME280;63554;48.940;12.050;2023-07-13T20:46:27;97607.25;;;19.38;52.56
75008;BME280;63554;48.940;12.050;2023-07-13T20:50:30;97614.63;;;19.27;52.32
75008;BME280;63554;48.940;12.050;2023-07-13T20:54:34;97628.59;;;19.15;51.81
75008;BME280;63554;48.940;12.050;2023-07-13T20:58:38;97633.75;;;19.07;53.33
75008;BME280;63554;48.940;12.050;2023-07-13T21:02:41;97631.25;;;19.00;53.49
75008;BME280;63554;48.940;12.050;2023-07-13T21:06:44;97629.81;;;18.87;53.82
75008;BME280;63554;48.940;12.050;2023-07-13T21:10:47;97631.88;;;18.70;54.64
75008;BME280;63554;48.940;12.050;2023-07-13T21:14:51;97631.81;;;18.54;54.21
75008;BME280;63554;48.940;12.050;2023-07-13T21:18:54;97652.31;;;18.47;54.32
75008;BME280;63554;48.940;12.050;2023-07-13T21:22:56;97647.91;;;18.46;53.43
75008;BME280;63554;48.940;12.050;2023-07-13T21:27:00;97647.34;;;18.44;53.39